Wetterdaten: Montag, 27.09.2010
Datum Zeit Temp. A. Feuchte A. Luftdruck Regen Wind Richtung Richtung Sonnenschein UV Solar Windben
27.09.2010 00:00 6,7 C 90 % 1009,1 hPa 0,0 mm 0,0 km/h (0 Bft) N 0 0 min 0 UV-I 0 W/m 0,0 km/h (0 Bft)
27.09.2010 00:10 6,7 C 90 % 1009,0 hPa 0,0 mm 0,0 km/h (0 Bft) N 0 0 min 0 UV-I 0 W/m 0,0 km/h (0 Bft)
27.09.2010 00:20 6,6 C 90 % 1008,9 hPa 0,0 mm 0,0 km/h (0 Bft) N 0 0 min 0 UV-I 0 W/m 0,0 km/h (0 Bft)
27.09.2010 00:30 6,6 C 91 % 1008,9 hPa 0,0 mm 0,0 km/h (0 Bft) N 0 0 min 0 UV-I 0 W/m 0,0 km/h (0 Bft)
27.09.2010 00:40 6,6 C 90 % 1008,9 hPa 0,0 mm 0,0 km/h (0 Bft) N 0 0 min 0 UV-I 0 W/m 0,0 km/h (0 Bft)
27.09.2010 00:50 6,4 C 90 % 1009,0 hPa 0,0 mm 0,0 km/h (0 Bft) N 0 0 min 0 UV-I 0 W/m 0,0 km/h (0 Bft)
27.09.2010 01:00 6,3 C 91 % 1009,0 hPa 0,0 mm 0,0 km/h (0 Bft) N 0 0 min 0 UV-I 0 W/m 0,0 km/h (0 Bft)
27.09.2010 01:10 6,3 C 91 % 1008,9 hPa 0,0 mm 0,0 km/h (0 Bft) N 0 0 min 0 UV-I 0 W/m 0,0 km/h (0 Bft)
27.09.2010 01:20 6,5 C 91 % 1008,9 hPa 0,0 mm 0,0 km/h (0 Bft) W-NW 292 0 min 0 UV-I 0 W/m 1,6 km/h (1 Bft)
27.09.2010 01:30 6,5 C 91 % 1009,0 hPa 0,0 mm 0,0 km/h (0 Bft) N 0 0 min 0 UV-I 0 W/m 0,0 km/h (0 Bft)
27.09.2010 01:40 6,6 C 91 % 1008,9 hPa 0,0 mm 0,0 km/h (0 Bft) N 0 0 min 0 UV-I 0 W/m 0,0 km/h (0 Bft)
27.09.2010 01:50 6,8 C 91 % 1008,8 hPa 0,0 mm 0,0 km/h (0 Bft) N 0 0 min 0 UV-I 0 W/m 0,0 km/h (0 Bft)
27.09.2010 02:00 6,9 C 91 % 1008,8 hPa 0,0 mm 0,0 km/h (0 Bft) N 0 0 min 0 UV-I 0 W/m 0,0 km/h (0 Bft)
27.09.2010 02:10 7,0 C 91 % 1008,8 hPa 0,0 mm 0,0 km/h (0 Bft) N 0 0 min 0 UV-I 0 W/m 0,0 km/h (0 Bft)
27.09.2010 02:20 7,2 C 91 % 1008,9 hPa 0,0 mm 0,0 km/h (0 Bft) N 0 0 min 0 UV-I 0 W/m 0,0 km/h (0 Bft)
27.09.2010 02:30 7,3 C 92 % 1009,0 hPa 0,0 mm 0,0 km/h (0 Bft) N 0 0 min 0 UV-I 0 W/m 0,0 km/h (0 Bft)
27.09.2010 02:40 7,3 C 91 % 1008,9 hPa 0,0 mm 0,0 km/h (0 Bft) N 0 0 min 0 UV-I 0 W/m 0,0 km/h (0 Bft)
27.09.2010 02:50 7,3 C 92 % 1008,8 hPa 0,0 mm 0,0 km/h (0 Bft) N 0 0 min 0 UV-I 0 W/m 0,0 km/h (0 Bft)
27.09.2010 03:00 7,4 C 92 % 1008,8 hPa 0,0 mm 0,0 km/h (0 Bft) N 0 0 min 0 UV-I 0 W/m 0,0 km/h (0 Bft)
27.09.2010 03:10 7,5 C 92 % 1008,8 hPa 0,0 mm 0,0 km/h (0 Bft) N 0 0 min 0 UV-I 0 W/m 0,0 km/h (0 Bft)
27.09.2010 03:20 7,6 C 92 % 1008,8 hPa 0,0 mm 0,0 km/h (0 Bft) N 0 0 min 0 UV-I 0 W/m 0,0 km/h (0 Bft)
27.09.2010 03:30 7,7 C 92 % 1008,6 hPa 0,0 mm 0,0 km/h (0 Bft) N 0 0 min 0 UV-I 0 W/m 0,0 km/h (0 Bft)
27.09.2010 03:40 7,7 C 92 % 1008,7 hPa 0,0 mm 0,0 km/h (0 Bft) N 0 0 min 0 UV-I 0 W/m 0,0 km/h (0 Bft)
27.09.2010 03:50 7,8 C 92 % 1008,7 hPa 0,0 mm 0,0 km/h (0 Bft) N 0 0 min 0 UV-I 0 W/m 0,0 km/h (0 Bft)
27.09.2010 04:00 7,9 C 92 % 1008,7 hPa 0,0 mm 0,0 km/h (0 Bft) W-NW 292 0 min 0 UV-I 0 W/m 1,6 km/h (1 Bft)
27.09.2010 04:10 8,2 C 92 % 1008,7 hPa 0,0 mm 0,0 km/h (0 Bft) W-NW 292 0 min 0 UV-I 0 W/m 1,6 km/h (1 Bft)
27.09.2010 04:20 8,3 C 92 % 1008,7 hPa 0,0 mm 0,0 km/h (0 Bft) N 0 0 min 0 UV-I 0 W/m 0,0 km/h (0 Bft)
27.09.2010 04:30 8,4 C 92 % 1008,5 hPa 0,0 mm 0,0 km/h (0 Bft) W-NW 292 0 min 0 UV-I 0 W/m 1,6 km/h (1 Bft)
27.09.2010 04:40 8,5 C 91 % 1008,6 hPa 0,0 mm 0,0 km/h (0 Bft) W-NW 292 0 min 0 UV-I 0 W/m 1,6 km/h (1 Bft)
27.09.2010 04:50 8,6 C 91 % 1008,6 hPa 0,0 mm 0,0 km/h (0 Bft) W-NW 292 0 min 0 UV-I 0 W/m 1,6 km/h (1 Bft)
27.09.2010 05:00 8,7 C 91 % 1008,6 hPa 0,0 mm 0,0 km/h (0 Bft) W-NW 292 0 min 0 UV-I 0 W/m 3,2 km/h (1 Bft)
27.09.2010 05:10 8,7 C 91 % 1008,4 hPa 0,0 mm 0,0 km/h (0 Bft) W-NW 292 0 min 0 UV-I 0 W/m 1,6 km/h (1 Bft)
27.09.2010 05:20 8,7 C 91 % 1008,5 hPa 0,0 mm 0,0 km/h (0 Bft) N 0 0 min 0 UV-I 0 W/m 0,0 km/h (0 Bft)
27.09.2010 05:30 8,7 C 91 % 1008,3 hPa 0,0 mm 0,0 km/h (0 Bft) W-NW 292 0 min 0 UV-I 0 W/m 3,2 km/h (1 Bft)
27.09.2010 05:40 8,7 C 91 % 1008,4 hPa 0,0 mm 0,0 km/h (0 Bft) W-NW 292 0 min 0 UV-I 0 W/m 3,2 km/h (1 Bft)
27.09.2010 05:50 8,7 C 91 % 1008,3 hPa 0,0 mm 0,0 km/h (0 Bft) W-NW 292 0 min 0 UV-I 0 W/m 4,8 km/h (1 Bft)
27.09.2010 06:00 8,8 C 91 % 1008,3 hPa 0,0 mm 0,0 km/h (0 Bft) W 270 0 min 0 UV-I 0 W/m 6,4 km/h (2 Bft)
27.09.2010 06:10 8,9 C 91 % 1008,3 hPa 0,0 mm 1,6 km/h (1 Bft) W 270 0 min 0 UV-I 0 W/m 6,4 km/h (2 Bft)
27.09.2010 06:20 9,1 C 91 % 1008,1 hPa 0,0 mm 0,0 km/h (0 Bft) W 270 0 min 0 UV-I 0 W/m 4,8 km/h (1 Bft)
27.09.2010 06:30 9,2 C 91 % 1007,9 hPa 0,0 mm 0,0 km/h (0 Bft) W 270 0 min 0 UV-I 0 W/m 6,4 km/h (2 Bft)
27.09.2010 06:40 9,2 C 91 % 1008,0 hPa 0,0 mm 1,6 km/h (1 Bft) W 270 0 min 0 UV-I 0 W/m 8,0 km/h (2 Bft)
27.09.2010 06:50 9,2 C 91 % 1008,1 hPa 0,0 mm 1,6 km/h (1 Bft) W 270 0 min 0 UV-I 0 W/m 6,4 km/h (2 Bft)
27.09.2010 07:00 9,2 C 91 % 1008,2 hPa 0,0 mm 0,0 km/h (0 Bft) W 270 0 min 0 UV-I 0 W/m 6,4 km/h (2 Bft)
27.09.2010 07:10 9,2 C 91 % 1008,3 hPa 0,3 mm 0,0 km/h (0 Bft) W 270 0 min 0 UV-I 0 W/m 4,8 km/h (1 Bft)
27.09.2010 07:20 9,2 C 91 % 1008,2 hPa 0,0 mm 0,0 km/h (0 Bft) W 270 0 min 0 UV-I 0 W/m 3,2 km/h (1 Bft)
27.09.2010 07:30 9,2 C 91 % 1008,4 hPa 0,0 mm 0,0 km/h (0 Bft) W 270 0 min 0 UV-I 0 W/m 4,8 km/h (1 Bft)
27.09.2010 07:40 9,2 C 91 % 1008,5 hPa 0,3 mm 1,6 km/h (1 Bft) W-SW 247 0 min 0 UV-I 0 W/m 8,0 km/h (2 Bft)
27.09.2010 07:50 9,1 C 91 % 1008,8 hPa 0,0 mm 1,6 km/h (1 Bft) W 270 0 min 0 UV-I 0 W/m 6,4 km/h (2 Bft)
27.09.2010 08:00 9,1 C 91 % 1008,8 hPa 0,3 mm 0,9 km/h (0 Bft) W-SW 248 0 min 0 UV-I 0 W/m 3,2 km/h (1 Bft)
27.09.2010 08:10 9,1 C 91 % 1008,8 hPa 0,5 mm 3,2 km/h (1 Bft) W-SW 247 0 min 0 UV-I 5 W/m 11,3 km/h (2 Bft)
27.09.2010 08:20 9,1 C 91 % 1008,9 hPa 0,0 mm 3,2 km/h (1 Bft) W 270 0 min 0 UV-I 7 W/m 11,3 km/h (2 Bft)
27.09.2010 08:30 9,1 C 91 % 1008,9 hPa 0,3 mm 3,2 km/h (1 Bft) W 270 0 min 0 UV-I 11 W/m 11,3 km/h (2 Bft)
27.09.2010 08:40 9,0 C 92 % 1008,9 hPa 0,3 mm 3,2 km/h (1 Bft) W 270 0 min 0 UV-I 12 W/m 9,7 km/h (2 Bft)
27.09.2010 08:50 9,0 C 91 % 1008,8 hPa 0,3 mm 3,2 km/h (1 Bft) W 270 0 min 0 UV-I 14 W/m 9,7 km/h (2 Bft)
27.09.2010 09:00 9,0 C 92 % 1008,9 hPa 0,3 mm 3,2 km/h (1 Bft) W 270 0 min 0 UV-I 16 W/m 11,3 km/h (2 Bft)
27.09.2010 09:10 9,0 C 92 % 1008,9 hPa 0,5 mm 3,2 km/h (1 Bft) W 270 0 min 0 UV-I 25 W/m 16,1 km/h (3 Bft)
27.09.2010 09:20 9,1 C 92 % 1009,0 hPa 0,0 mm 4,8 km/h (1 Bft) W-SW 247 0 min 0 UV-I 19 W/m 14,5 km/h (3 Bft)
27.09.2010 09:30 9,1 C 92 % 1009,0 hPa 0,3 mm 3,2 km/h (1 Bft) W 270 0 min 0 UV-I 28 W/m 14,5 km/h (3 Bft)
27.09.2010 09:40 9,1 C 92 % 1009,1 hPa 0,3 mm 3,2 km/h (1 Bft) W 270 0 min 0 UV-I 25 W/m 17,7 km/h (3 Bft)
27.09.2010 09:50 9,1 C 92 % 1009,2 hPa 0,5 mm 4,8 km/h (1 Bft) W 270 0 min 0 UV-I 23 W/m 14,5 km/h (3 Bft)
27.09.2010 10:00 9,1 C 92 % 1009,3 hPa 0,3 mm 1,6 km/h (1 Bft) W 270 0 min 0 UV-I 19 W/m 11,3 km/h (2 Bft)
27.09.2010 10:10 9,2 C 92 % 1009,4 hPa 0,5 mm 3,2 km/h (1 Bft) SW 225 0 min 0 UV-I 25 W/m 16,1 km/h (3 Bft)
27.09.2010 10:20 9,2 C 92 % 1009,3 hPa 0,3 mm 4,8 km/h (1 Bft) W 270 0 min 0 UV-I 26 W/m 16,1 km/h (3 Bft)
27.09.2010 10:30 9,2 C 92 % 1009,2 hPa 0,5 mm 4,8 km/h (1 Bft) W 270 0 min 0 UV-I 40 W/m 12,9 km/h (3 Bft)
27.09.2010 10:40 9,2 C 93 % 1009,1 hPa 0,3 mm 4,9 km/h (1 Bft) SW 232 0 min 0 UV-I 53 W/m 14,5 km/h (3 Bft)
27.09.2010 10:50 9,2 C 93 % 1009,2 hPa 0,3 mm 4,5 km/h (1 Bft) S 190 0 min 0 UV-I 41 W/m 16,1 km/h (3 Bft)
27.09.2010 11:00 9,3 C 93 % 1009,2 hPa 0,3 mm 5,1 km/h (1 Bft) W-SW 255 0 min 0 UV-I 27 W/m 16,1 km/h (3 Bft)
27.09.2010 11:10 9,3 C 93 % 1009,1 hPa 0,3 mm 2,9 km/h (1 Bft) W 263 0 min 0 UV-I 51 W/m 9,7 km/h (2 Bft)
27.09.2010 11:19 9,4 C 93 % 1009,1 hPa 0,3 mm 3,5 km/h (1 Bft) W-SW 248 0 min 1 UV-I 72 W/m 14,5 km/h (3 Bft)
27.09.2010 11:30 9,4 C 93 % 1009,3 hPa 0,0 mm 5,4 km/h (1 Bft) SW 236 0 min 0 UV-I 57 W/m 16,1 km/h (3 Bft)
27.09.2010 11:40 9,3 C 93 % 1009,1 hPa 0,3 mm 4,3 km/h (1 Bft) W 273 0 min 0 UV-I 36 W/m 14,5 km/h (3 Bft)
27.09.2010 11:50 9,3 C 93 % 1009,1 hPa 0,0 mm 6,8 km/h (2 Bft) W-SW 256 0 min 0 UV-I 49 W/m 19,3 km/h (3 Bft)
27.09.2010 12:00 9,4 C 93 % 1009,2 hPa 0,3 mm 3,3 km/h (1 Bft) W-NW 295 0 min 0 UV-I 34 W/m 16,1 km/h (3 Bft)
27.09.2010 12:10 9,4 C 93 % 1009,2 hPa 0,0 mm 4,8 km/h (1 Bft) W-SW 238 0 min 0 UV-I 38 W/m 17,7 km/h (3 Bft)
27.09.2010 12:20 9,4 C 93 % 1009,2 hPa 0,3 mm 5,5 km/h (1 Bft) W 260 0 min 0 UV-I 30 W/m 16,1 km/h (3 Bft)
27.09.2010 12:30 9,4 C 93 % 1009,3 hPa 0,3 mm 4,1 km/h (1 Bft) W-SW 238 0 min 0 UV-I 34 W/m 11,3 km/h (2 Bft)
27.09.2010 12:40 9,4 C 93 % 1009,3 hPa 0,3 mm 5,2 km/h (1 Bft) W-SW 253 0 min 0 UV-I 33 W/m 14,5 km/h (3 Bft)
27.09.2010 12:50 9,4 C 93 % 1009,3 hPa 0,0 mm 4,6 km/h (1 Bft) NW 304 0 min 0 UV-I 39 W/m 16,1 km/h (3 Bft)
27.09.2010 13:00 9,5 C 93 % 1009,3 hPa 0,3 mm 3,6 km/h (1 Bft) W 260 0 min 0 UV-I 37 W/m 11,3 km/h (2 Bft)
27.09.2010 13:10 9,5 C 93 % 1009,3 hPa 0,3 mm 3,7 km/h (1 Bft) W-SW 251 0 min 0 UV-I 40 W/m 17,7 km/h (3 Bft)
27.09.2010 13:20 9,6 C 93 % 1009,3 hPa 0,3 mm 3,0 km/h (1 Bft) W 264 0 min 0 UV-I 45 W/m 9,7 km/h (2 Bft)
27.09.2010 13:30 9,6 C 93 % 1009,2 hPa 0,3 mm 2,9 km/h (1 Bft) W-SW 241 0 min 0 UV-I 48 W/m 14,5 km/h (3 Bft)
27.09.2010 13:40 9,6 C 93 % 1009,1 hPa 0,5 mm 3,0 km/h (1 Bft) W-SW 252 0 min 0 UV-I 50 W/m 11,3 km/h (2 Bft)
27.09.2010 13:50 9,6 C 93 % 1009,1 hPa 0,3 mm 5,3 km/h (1 Bft) W 273 0 min 0 UV-I 42 W/m 14,5 km/h (3 Bft)
27.09.2010 14:00 9,7 C 93 % 1009,0 hPa 0,3 mm 3,4 km/h (1 Bft) W 266 0 min 0 UV-I 39 W/m 11,3 km/h (2 Bft)
27.09.2010 14:10 9,8 C 93 % 1009,1 hPa 0,0 mm 2,8 km/h (1 Bft) W-SW 257 0 min 1 UV-I 67 W/m 11,3 km/h (2 Bft)
27.09.2010 14:20 9,8 C 93 % 1009,1 hPa 0,3 mm 5,5 km/h (1 Bft) W-SW 252 0 min 1 UV-I 70 W/m 14,5 km/h (3 Bft)
27.09.2010 14:30 9,8 C 93 % 1009,0 hPa 0,3 mm 5,2 km/h (1 Bft) W-SW 246 0 min 1 UV-I 65 W/m 11,3 km/h (2 Bft)
27.09.2010 14:40 9,9 C 93 % 1009,1 hPa 0,3 mm 4,9 km/h (1 Bft) W-SW 247 0 min 1 UV-I 93 W/m 14,5 km/h (3 Bft)
27.09.2010 14:50 9,9 C 93 % 1009,0 hPa 0,3 mm 4,3 km/h (1 Bft) W 275 0 min 1 UV-I 79 W/m 11,3 km/h (2 Bft)
27.09.2010 15:00 10,0 C 93 % 1009,1 hPa 0,3 mm 2,8 km/h (1 Bft) W 271 0 min 0 UV-I 43 W/m 9,7 km/h (2 Bft)
27.09.2010 15:10 10,0 C 93 % 1009,2 hPa 0,0 mm 3,9 km/h (1 Bft) W 271 0 min 0 UV-I 38 W/m 16,1 km/h (3 Bft)
27.09.2010 15:20 10,0 C 93 % 1009,1 hPa 0,3 mm 4,4 km/h (1 Bft) W 267 0 min 0 UV-I 49 W/m 11,3 km/h (2 Bft)
27.09.2010 15:30 9,9 C 93 % 1009,2 hPa 0,3 mm 4,6 km/h (1 Bft) W-SW 242 0 min 0 UV-I 29 W/m 14,5 km/h (3 Bft)
27.09.2010 15:40 9,9 C 93 % 1009,2 hPa 0,3 mm 4,3 km/h (1 Bft) W-SW 244 0 min 0 UV-I 26 W/m 11,3 km/h (2 Bft)
27.09.2010 15:50 9,9 C 93 % 1009,2 hPa 0,0 mm 2,6 km/h (1 Bft) W 264 0 min 0 UV-I 21 W/m 12,9 km/h (3 Bft)
27.09.2010 16:00 10,0 C 93 % 1009,3 hPa 0,5 mm 2,1 km/h (1 Bft) W 261 0 min 0 UV-I 32 W/m 8,0 km/h (2 Bft)
27.09.2010 16:10 10,1 C 93 % 1009,3 hPa 0,0 mm 3,7 km/h (1 Bft) W-SW 254 0 min 0 UV-I 29 W/m 14,5 km/h (3 Bft)
27.09.2010 16:20 10,1 C 93 % 1009,2 hPa 0,3 mm 3,7 km/h (1 Bft) W 269 0 min 0 UV-I 28 W/m 14,5 km/h (3 Bft)
27.09.2010 16:30 10,1 C 93 % 1009,2 hPa 0,5 mm 2,7 km/h (1 Bft) W-SW 257 0 min 0 UV-I 29 W/m 8,0 km/h (2 Bft)
27.09.2010 16:40 10,1 C 93 % 1009,2 hPa 0,3 mm 2,6 km/h (1 Bft) W-SW 254 0 min 0 UV-I 24 W/m 8,0 km/h (2 Bft)
27.09.2010 16:50 10,1 C 93 % 1009,4 hPa 0,3 mm 2,5 km/h (1 Bft) W 261 0 min 0 UV-I 22 W/m 9,7 km/h (2 Bft)
27.09.2010 17:00 10,1 C 93 % 1009,4 hPa 0,0 mm 4,2 km/h (1 Bft) W 268 0 min 0 UV-I 29 W/m 16,1 km/h (3 Bft)
27.09.2010 17:10 10,1 C 93 % 1009,4 hPa 0,3 mm 4,0 km/h (1 Bft) SW 222 0 min 0 UV-I 21 W/m 14,5 km/h (3 Bft)
27.09.2010 17:20 10,1 C 93 % 1009,4 hPa 0,3 mm 2,9 km/h (1 Bft) W 264 0 min 0 UV-I 19 W/m 9,7 km/h (2 Bft)
27.09.2010 17:30 10,1 C 93 % 1009,3 hPa 0,3 mm 2,7 km/h (1 Bft) W-SW 246 0 min 0 UV-I 16 W/m 11,3 km/h (2 Bft)
27.09.2010 17:40 10,1 C 93 % 1009,3 hPa 0,3 mm 3,9 km/h (1 Bft) W 260 0 min 0 UV-I 15 W/m 11,3 km/h (2 Bft)
27.09.2010 17:50 10,0 C 93 % 1009,4 hPa 0,3 mm 3,9 km/h (1 Bft) W-SW 244 0 min 0 UV-I 11 W/m 16,1 km/h (3 Bft)
27.09.2010 18:00 10,0 C 94 % 1009,4 hPa 0,3 mm 2,1 km/h (1 Bft) W-SW 252 0 min 0 UV-I 11 W/m 8,0 km/h (2 Bft)
27.09.2010 18:10 10,0 C 93 % 1009,6 hPa 0,3 mm 2,9 km/h (1 Bft) W-SW 246 0 min 0 UV-I 8 W/m 14,5 km/h (3 Bft)
27.09.2010 18:20 9,9 C 94 % 1009,5 hPa 0,0 mm 4,0 km/h (1 Bft) W-SW 250 0 min 0 UV-I 5 W/m 16,1 km/h (3 Bft)
27.09.2010 18:30 9,9 C 94 % 1009,6 hPa 0,0 mm 2,8 km/h (1 Bft) SW 217 0 min 0 UV-I 0 W/m 11,3 km/h (2 Bft)
27.09.2010 18:40 9,8 C 94 % 1009,6 hPa 0,0 mm 3,4 km/h (1 Bft) W 261 0 min 0 UV-I 0 W/m 11,3 km/h (2 Bft)
27.09.2010 18:50 9,8 C 94 % 1009,6 hPa 0,0 mm 3,2 km/h (1 Bft) W-SW 248 0 min 0 UV-I 0 W/m 11,3 km/h (2 Bft)
27.09.2010 19:00 9,8 C 94 % 1009,8 hPa 0,3 mm 3,2 km/h (1 Bft) W-SW 237 0 min 0 UV-I 0 W/m 14,5 km/h (3 Bft)
27.09.2010 19:10 9,8 C 94 % 1009,9 hPa 0,0 mm 3,5 km/h (1 Bft) W-SW 252 0 min 0 UV-I 0 W/m 11,3 km/h (2 Bft)
27.09.2010 19:20 9,8 C 93 % 1009,7 hPa 0,3 mm 2,8 km/h (1 Bft) W-SW 257 0 min 0 UV-I 0 W/m 9,7 km/h (2 Bft)
27.09.2010 19:30 9,8 C 93 % 1009,9 hPa 0,3 mm 3,9 km/h (1 Bft) W 279 0 min 0 UV-I 0 W/m 11,3 km/h (2 Bft)
27.09.2010 19:40 9,7 C 93 % 1009,9 hPa 0,3 mm 4,3 km/h (1 Bft) S-SW 201 0 min 0 UV-I 0 W/m 11,3 km/h (2 Bft)
27.09.2010 19:50 9,7 C 94 % 1010,0 hPa 0,3 mm 3,2 km/h (1 Bft) SW 218 0 min 0 UV-I 0 W/m 9,7 km/h (2 Bft)
27.09.2010 20:00 9,8 C 94 % 1009,9 hPa 0,0 mm 3,2 km/h (1 Bft) W 263 0 min 0 UV-I 0 W/m 11,3 km/h (2 Bft)
27.09.2010 20:10 9,8 C 94 % 1009,9 hPa 0,3 mm 3,2 km/h (1 Bft) W 259 0 min 0 UV-I 0 W/m 11,3 km/h (2 Bft)
27.09.2010 20:20 9,7 C 94 % 1010,2 hPa 0,3 mm 2,8 km/h (1 Bft) SW 229 0 min 0 UV-I 0 W/m 9,7 km/h (2 Bft)
27.09.2010 20:30 9,7 C 94 % 1010,1 hPa 0,0 mm 2,6 km/h (1 Bft) W-SW 249 0 min 0 UV-I 0 W/m 9,7 km/h (2 Bft)
27.09.2010 20:40 9,7 C 94 % 1010,1 hPa 0,3 mm 2,9 km/h (1 Bft) W 263 0 min 0 UV-I 0 W/m 9,7 km/h (2 Bft)
27.09.2010 20:50 9,7 C 94 % 1010,2 hPa 0,3 mm 3,0 km/h (1 Bft) W 273 0 min 0 UV-I 0 W/m 9,7 km/h (2 Bft)
27.09.2010 21:00 9,7 C 94 % 1010,2 hPa 0,0 mm 3,2 km/h (1 Bft) W 259 0 min 0 UV-I 0 W/m 11,3 km/h (2 Bft)
27.09.2010 21:10 9,7 C 94 % 1010,3 hPa 0,3 mm 2,3 km/h (1 Bft) W-SW 255 0 min 0 UV-I 0 W/m 14,5 km/h (3 Bft)
27.09.2010 21:20 9,7 C 94 % 1010,3 hPa 0,3 mm 2,0 km/h (1 Bft) W-SW 245 0 min 0 UV-I 0 W/m 8,0 km/h (2 Bft)
27.09.2010 21:30 9,7 C 94 % 1010,3 hPa 0,0 mm 2,8 km/h (1 Bft) W 265 0 min 0 UV-I 0 W/m 9,7 km/h (2 Bft)
27.09.2010 21:40 9,7 C 94 % 1010,3 hPa 0,3 mm 2,0 km/h (1 Bft) W-SW 252 0 min 0 UV-I 0 W/m 8,0 km/h (2 Bft)
27.09.2010 21:50 9,8 C 94 % 1010,4 hPa 0,0 mm 0,3 km/h (0 Bft) W-SW 246 0 min 0 UV-I 0 W/m 3,2 km/h (1 Bft)
27.09.2010 22:00 9,8 C 94 % 1010,5 hPa 0,3 mm 1,9 km/h (1 Bft) W-NW 287 0 min 0 UV-I 0 W/m 8,0 km/h (2 Bft)
27.09.2010 22:10 9,8 C 94 % 1010,4 hPa 0,0 mm 1,7 km/h (1 Bft) W 271 0 min 0 UV-I 0 W/m 8,0 km/h (2 Bft)
27.09.2010 22:20 9,7 C 94 % 1010,4 hPa 0,3 mm 1,8 km/h (1 Bft) W 267 0 min 0 UV-I 0 W/m 8,0 km/h (2 Bft)
27.09.2010 22:30 9,7 C 94 % 1010,5 hPa 0,0 mm 0,7 km/h (0 Bft) SW 229 0 min 0 UV-I 0 W/m 6,4 km/h (2 Bft)
27.09.2010 22:40 9,7 C 94 % 1010,5 hPa 0,0 mm 2,4 km/h (1 Bft) W-SW 250 0 min 0 UV-I 0 W/m 9,7 km/h (2 Bft)
27.09.2010 22:50 9,7 C 94 % 1010,6 hPa 0,3 mm 1,7 km/h (1 Bft) W-NW 293 0 min 0 UV-I 0 W/m 8,0 km/h (2 Bft)
27.09.2010 23:00 9,7 C 94 % 1010,5 hPa 0,0 mm 0,5 km/h (0 Bft) W 264 0 min 0 UV-I 0 W/m 4,8 km/h (1 Bft)
27.09.2010 23:10 9,7 C 94 % 1010,5 hPa 0,3 mm 0,5 km/h (0 Bft) W 261 0 min 0 UV-I 0 W/m 4,8 km/h (1 Bft)
27.09.2010 23:20 9,7 C 94 % 1010,5 hPa 0,0 mm 0,6 km/h (0 Bft) SW 232 0 min 0 UV-I 0 W/m 6,4 km/h (2 Bft)
27.09.2010 23:30 9,7 C 94 % 1010,7 hPa 0,0 mm 1,0 km/h (0 Bft) S-SW 209 0 min 0 UV-I 0 W/m 8,0 km/h (2 Bft)
27.09.2010 23:40 9,7 C 94 % 1010,7 hPa 0,0 mm 0,6 km/h (0 Bft) SW 215 0 min 0 UV-I 0 W/m 4,8 km/h (1 Bft)
27.09.2010 23:50 9,7 C 94 % 1010,7 hPa 0,3 mm 0,8 km/h (0 Bft) S-SW 210 0 min 0 UV-I 0 W/m 6,4 km/h (2 Bft)
_ Min-Zeit 00:50 00:00 06:30 - 00:00 - - - - - 00:00
Minimum _ 6,3 C 90 % 1007,9 hPa - 0,0 km/h (0 Bft) - - - - - 0,0 km/h (0 Bft)
_ Max-Zeit 16:00 18:00 23:30 08:10 11:50 - - 00:00 14:40 14:40 11:50
Maximum _ 10,1 C 94 % 1010,7 hPa 0,5 mm 6,8 km/h
W-SW (2 Bft)
- - 0 min 1 UV-I 93 W/m 19,3 km/h
SW (3 Bft)
Durchschnitt _ 9,1 C 92 % 1009,2 hPa #19,8 mm 2,2 km/h (1 Bft) W - #0 min. 0 UV-I 33 W/m 8,5 km/h (2 Bft)